SHU5620 UHHH-UHSS
Flight info
| Callsign | SHU5620 |
|---|---|
| Flight time | N/A |
| Altitude | 35000 |
| Route | NEBE4R/23R NEBES B150 MOGIS A969 KENOM KENO2B/01 |
| Aircraft | A319/M-SDE3FGHIRWY/LB1 |
Departure
| Time | 2026-04-08 10:59 |
|---|---|
| Airport | Khabarovsk Novy Airport (UHHH) |
Arrival
| Time | N/A |
|---|---|
| Airport | Yuzhno-Sakhalinsk International Airport (UHSS) |
| Time | Latitude | Longitude | Altitude | Speed | Heading |
|---|---|---|---|---|---|
| 2026-04-08 10:49 | 48.52364 | 135.17160 | 250 ft | 2 kts | 355° |
| 2026-04-08 10:49 | 48.52349 | 135.17158 | 250 ft | 2 kts | 20° |
| 2026-04-08 10:49 | 48.52340 | 135.17151 | 250 ft | 0 kts | 39° |
| 2026-04-08 10:50 | 48.52335 | 135.17143 | 250 ft | 0 kts | 42° |
| 2026-04-08 10:52 | 48.52339 | 135.17149 | 250 ft | 3 kts | 42° |
| 2026-04-08 10:52 | 48.52384 | 135.17212 | 250 ft | 11 kts | 43° |
| 2026-04-08 10:52 | 48.52445 | 135.17293 | 250 ft | 12 kts | 42° |
| 2026-04-08 10:52 | 48.52487 | 135.17351 | 250 ft | 8 kts | 42° |
| 2026-04-08 10:53 | 48.52499 | 135.17427 | 250 ft | 8 kts | 121° |
| 2026-04-08 10:53 | 48.52467 | 135.17485 | 250 ft | 10 kts | 133° |
| 2026-04-08 10:53 | 48.52404 | 135.17589 | 250 ft | 15 kts | 132° |
| 2026-04-08 10:53 | 48.52329 | 135.17712 | 250 ft | 16 kts | 131° |
| 2026-04-08 10:54 | 48.52283 | 135.17804 | 250 ft | 12 kts | 103° |
| 2026-04-08 10:54 | 48.52306 | 135.17892 | 250 ft | 11 kts | 38° |
| 2026-04-08 10:54 | 48.52393 | 135.18015 | 250 ft | 22 kts | 42° |
| 2026-04-08 10:54 | 48.52523 | 135.18193 | 250 ft | 27 kts | 42° |
| 2026-04-08 10:55 | 48.52681 | 135.18407 | 250 ft | 32 kts | 41° |
| 2026-04-08 10:55 | 48.52859 | 135.18649 | 250 ft | 36 kts | 43° |
| 2026-04-08 10:55 | 48.53046 | 135.18903 | 250 ft | 35 kts | 42° |
| 2026-04-08 10:55 | 48.53225 | 135.19145 | 250 ft | 33 kts | 42° |
| 2026-04-08 10:56 | 48.53383 | 135.19360 | 250 ft | 26 kts | 41° |
| 2026-04-08 10:56 | 48.53514 | 135.19540 | 250 ft | 25 kts | 43° |
| 2026-04-08 10:56 | 48.53640 | 135.19717 | 250 ft | 24 kts | 42° |
| 2026-04-08 10:56 | 48.53754 | 135.19875 | 250 ft | 20 kts | 43° |
| 2026-04-08 10:57 | 48.53859 | 135.20020 | 250 ft | 18 kts | 41° |
| 2026-04-08 10:57 | 48.53916 | 135.20111 | 250 ft | 11 kts | 60° |
| 2026-04-08 10:57 | 48.53956 | 135.20129 | 250 ft | 8 kts | 261° |
| 2026-04-08 10:57 | 48.53914 | 135.20082 | 250 ft | 9 kts | 214° |
| 2026-04-08 10:58 | 48.53855 | 135.20003 | 250 ft | 22 kts | 222° |
| 2026-04-08 10:58 | 48.53547 | 135.19586 | 251 ft | 93 kts | 222° |
| 2026-04-08 10:58 | 48.52919 | 135.18727 | 265 ft | 147 kts | 222° |
| 2026-04-08 10:58 | 48.52163 | 135.17662 | 812 ft | 149 kts | 223° |
| 2026-04-08 10:59 | 48.51435 | 135.16586 | 1485 ft | 149 kts | 222° |
| 2026-04-08 10:59 | 48.50661 | 135.15559 | 2156 ft | 146 kts | 220° |
| 2026-04-08 10:59 | 48.49889 | 135.14561 | 2637 ft | 154 kts | 221° |
| 2026-04-08 10:59 | 48.49056 | 135.13435 | 2993 ft | 170 kts | 222° |
| 2026-04-08 11:00 | 48.48132 | 135.12174 | 3338 ft | 190 kts | 222° |
| 2026-04-08 11:00 | 48.47103 | 135.10771 | 3732 ft | 208 kts | 222° |
| 2026-04-08 11:00 | 48.45981 | 135.09242 | 4090 ft | 230 kts | 222° |
| 2026-04-08 11:00 | 48.44749 | 135.07567 | 4568 ft | 248 kts | 222° |
| 2026-04-08 11:01 | 48.43447 | 135.05800 | 5246 ft | 256 kts | 222° |
| 2026-04-08 11:01 | 48.42139 | 135.04027 | 6068 ft | 259 kts | 222° |
| 2026-04-08 11:01 | 48.40797 | 135.02211 | 6871 ft | 262 kts | 222° |
| 2026-04-08 11:01 | 48.39445 | 135.00383 | 7644 ft | 265 kts | 223° |
| 2026-04-08 11:02 | 48.38081 | 134.98540 | 8403 ft | 269 kts | 223° |
| 2026-04-08 11:02 | 48.36681 | 134.96649 | 9158 ft | 272 kts | 223° |
| 2026-04-08 11:02 | 48.35232 | 134.94801 | 9876 ft | 277 kts | 214° |
| 2026-04-08 11:02 | 48.33425 | 134.93643 | 10278 ft | 296 kts | 193° |
| 2026-04-08 11:03 | 48.31317 | 134.93652 | 10574 ft | 318 kts | 169° |
| 2026-04-08 11:03 | 48.27699 | 134.97813 | 11123 ft | 362 kts | 117° |
| 2026-04-08 11:03 | 48.26876 | 135.01443 | 11494 ft | 375 kts | 106° |
| 2026-04-08 11:04 | 48.26217 | 135.05250 | 12064 ft | 381 kts | 105° |
| 2026-04-08 11:04 | 48.25553 | 135.09143 | 12695 ft | 384 kts | 105° |
| 2026-04-08 11:04 | 48.24878 | 135.13011 | 13291 ft | 388 kts | 106° |
| 2026-04-08 11:04 | 48.24243 | 135.16565 | 13815 ft | 391 kts | 106° |
| 2026-04-08 11:05 | 48.23527 | 135.20500 | 14375 ft | 395 kts | 106° |
| 2026-04-08 11:05 | 48.22794 | 135.24484 | 14925 ft | 399 kts | 107° |
| 2026-04-08 11:05 | 48.22047 | 135.28508 | 15461 ft | 402 kts | 107° |
| 2026-04-08 11:05 | 48.21288 | 135.32575 | 15985 ft | 406 kts | 107° |
| 2026-04-08 11:06 | 48.20528 | 135.36632 | 16489 ft | 409 kts | 107° |
| 2026-04-08 11:06 | 48.19758 | 135.40732 | 16980 ft | 413 kts | 107° |
| 2026-04-08 11:06 | 48.18975 | 135.44884 | 17459 ft | 416 kts | 107° |
| 2026-04-08 11:06 | 48.18181 | 135.49083 | 17929 ft | 419 kts | 107° |
| 2026-04-08 11:07 | 48.17386 | 135.53285 | 18423 ft | 421 kts | 107° |
| 2026-04-08 11:07 | 48.16588 | 135.57484 | 18985 ft | 421 kts | 107° |
| 2026-04-08 11:07 | 48.15780 | 135.61731 | 19444 ft | 424 kts | 107° |
| 2026-04-08 11:07 | 48.15108 | 135.65254 | 19790 ft | 427 kts | 108° |
| 2026-04-08 11:08 | 48.14164 | 135.70204 | 20265 ft | 430 kts | 108° |
| 2026-04-08 11:08 | 48.13333 | 135.74556 | 20674 ft | 433 kts | 108° |
| 2026-04-08 11:08 | 48.12510 | 135.78853 | 21065 ft | 436 kts | 108° |
| 2026-04-08 11:08 | 48.11669 | 135.83231 | 21452 ft | 439 kts | 108° |
| 2026-04-08 11:09 | 48.10820 | 135.87634 | 21829 ft | 442 kts | 108° |
| 2026-04-08 11:09 | 48.09961 | 135.92078 | 22198 ft | 445 kts | 108° |
| 2026-04-08 11:09 | 48.09107 | 135.96489 | 22552 ft | 448 kts | 108° |
| 2026-04-08 11:09 | 48.08236 | 136.00974 | 22904 ft | 450 kts | 108° |
| 2026-04-08 11:10 | 48.07365 | 136.05447 | 23246 ft | 453 kts | 108° |
| 2026-04-08 11:10 | 48.06485 | 136.09958 | 23583 ft | 455 kts | 108° |
| 2026-04-08 11:10 | 48.05597 | 136.14499 | 23913 ft | 458 kts | 108° |
| 2026-04-08 11:10 | 48.04693 | 136.19110 | 24239 ft | 461 kts | 108° |
| 2026-04-08 11:11 | 48.03786 | 136.23723 | 24557 ft | 463 kts | 108° |
| 2026-04-08 11:11 | 48.02882 | 136.28311 | 24863 ft | 466 kts | 108° |
| 2026-04-08 11:11 | 48.01967 | 136.32951 | 25170 ft | 468 kts | 108° |
| 2026-04-08 11:11 | 48.01046 | 136.37602 | 25469 ft | 470 kts | 108° |
| 2026-04-08 11:12 | 48.00109 | 136.42322 | 25763 ft | 473 kts | 108° |
| 2026-04-08 11:12 | 47.99174 | 136.47028 | 26050 ft | 475 kts | 108° |
| 2026-04-08 11:12 | 47.98225 | 136.51784 | 26334 ft | 478 kts | 108° |
| 2026-04-08 11:12 | 47.97277 | 136.56531 | 26605 ft | 480 kts | 108° |
| 2026-04-08 11:13 | 47.96321 | 136.61299 | 26868 ft | 482 kts | 108° |
| 2026-04-08 11:13 | 47.95361 | 136.66080 | 27122 ft | 484 kts | 109° |
| 2026-04-08 11:13 | 47.94397 | 136.70877 | 27392 ft | 485 kts | 109° |
| 2026-04-08 11:13 | 47.93430 | 136.75687 | 27736 ft | 484 kts | 109° |
| 2026-04-08 11:14 | 47.92455 | 136.80510 | 28089 ft | 484 kts | 109° |
| 2026-04-08 11:14 | 47.91488 | 136.85284 | 28420 ft | 483 kts | 109° |
| 2026-04-08 11:14 | 47.90516 | 136.90068 | 28741 ft | 483 kts | 109° |
| 2026-04-08 11:14 | 47.89540 | 136.94850 | 29064 ft | 483 kts | 109° |
| 2026-04-08 11:15 | 47.88560 | 136.99580 | 29391 ft | 482 kts | 110° |
| 2026-04-08 11:15 | 47.87563 | 137.04373 | 29722 ft | 481 kts | 110° |
| 2026-04-08 11:15 | 47.86581 | 137.09096 | 30050 ft | 481 kts | 110° |
| 2026-04-08 11:15 | 47.85600 | 137.13820 | 30366 ft | 480 kts | 110° |
| 2026-04-08 11:16 | 47.84609 | 137.18596 | 30671 ft | 480 kts | 110° |
| 2026-04-08 11:16 | 47.83637 | 137.23279 | 30964 ft | 480 kts | 110° |
| 2026-04-08 11:16 | 47.82655 | 137.28001 | 31254 ft | 480 kts | 110° |
| 2026-04-08 11:16 | 47.81674 | 137.32718 | 31535 ft | 479 kts | 110° |
| 2026-04-08 11:17 | 47.80685 | 137.37460 | 31816 ft | 479 kts | 110° |
| 2026-04-08 11:17 | 47.79693 | 137.42213 | 32094 ft | 479 kts | 110° |
| 2026-04-08 11:17 | 47.78706 | 137.46927 | 32358 ft | 479 kts | 110° |
| 2026-04-08 11:17 | 47.77721 | 137.51619 | 32615 ft | 479 kts | 110° |
| 2026-04-08 11:18 | 47.76727 | 137.56349 | 32862 ft | 479 kts | 110° |
| 2026-04-08 11:18 | 47.75729 | 137.61083 | 33067 ft | 480 kts | 110° |
| 2026-04-08 11:18 | 47.74741 | 137.65762 | 33254 ft | 481 kts | 111° |
| 2026-04-08 11:18 | 47.73733 | 137.70534 | 33438 ft | 482 kts | 110° |
| 2026-04-08 11:19 | 47.72729 | 137.75279 | 33611 ft | 483 kts | 111° |
| 2026-04-08 11:19 | 47.71731 | 137.79987 | 33772 ft | 484 kts | 111° |
| 2026-04-08 11:19 | 47.70719 | 137.84737 | 33935 ft | 484 kts | 111° |
| 2026-04-08 11:19 | 47.69702 | 137.89499 | 34094 ft | 485 kts | 111° |
| 2026-04-08 11:20 | 47.68685 | 137.94249 | 34241 ft | 486 kts | 111° |
| 2026-04-08 11:20 | 47.67656 | 137.99045 | 34392 ft | 486 kts | 111° |
| 2026-04-08 11:20 | 47.66626 | 138.03828 | 34534 ft | 487 kts | 111° |
| 2026-04-08 11:21 | 47.64558 | 138.13413 | 34557 ft | 488 kts | 111° |
| 2026-04-08 11:21 | 47.62493 | 138.22929 | 34561 ft | 488 kts | 111° |
| 2026-04-08 11:22 | 47.60408 | 138.32501 | 34562 ft | 488 kts | 111° |
| 2026-04-08 11:22 | 47.58317 | 138.42053 | 34562 ft | 488 kts | 111° |
| 2026-04-08 11:23 | 47.56222 | 138.51578 | 34562 ft | 488 kts | 111° |
| 2026-04-08 11:23 | 47.54124 | 138.61067 | 34564 ft | 488 kts | 111° |
| 2026-04-08 11:24 | 47.52074 | 138.70328 | 34577 ft | 488 kts | 111° |
| 2026-04-08 11:24 | 47.49954 | 138.79849 | 34571 ft | 488 kts | 111° |
| 2026-04-08 11:25 | 47.47834 | 138.89304 | 34603 ft | 488 kts | 111° |
| 2026-04-08 11:25 | 47.45693 | 138.98819 | 34653 ft | 487 kts | 111° |
| 2026-04-08 11:26 | 47.43556 | 139.08283 | 34694 ft | 487 kts | 112° |
| 2026-04-08 11:26 | 47.41404 | 139.17767 | 34713 ft | 487 kts | 112° |
| 2026-04-08 11:27 | 47.39249 | 139.27219 | 34722 ft | 487 kts | 112° |
| 2026-04-08 11:27 | 47.37087 | 139.36658 | 34725 ft | 487 kts | 112° |
| 2026-04-08 11:28 | 47.34920 | 139.46075 | 34726 ft | 488 kts | 112° |
| 2026-04-08 11:28 | 47.32726 | 139.55574 | 34726 ft | 488 kts | 112° |
| 2026-04-08 11:29 | 47.30540 | 139.64998 | 34727 ft | 487 kts | 112° |
| 2026-04-08 11:29 | 47.28348 | 139.74437 | 34726 ft | 487 kts | 112° |
| 2026-04-08 11:30 | 47.26152 | 139.83852 | 34726 ft | 487 kts | 112° |
| 2026-04-08 11:30 | 47.23956 | 139.93204 | 34464 ft | 487 kts | 113° |
| 2026-04-08 11:30 | 47.22848 | 139.97906 | 34154 ft | 485 kts | 113° |
| 2026-04-08 11:31 | 47.21756 | 140.02533 | 33709 ft | 482 kts | 113° |
| 2026-04-08 11:31 | 47.20638 | 140.07251 | 33149 ft | 492 kts | 112° |
| 2026-04-08 11:31 | 47.19501 | 140.12021 | 32422 ft | 498 kts | 112° |
| 2026-04-08 11:31 | 47.18367 | 140.16789 | 31717 ft | 496 kts | 112° |
| 2026-04-08 11:32 | 47.17240 | 140.21526 | 31195 ft | 490 kts | 112° |
| 2026-04-08 11:32 | 47.16132 | 140.26178 | 30645 ft | 485 kts | 112° |
| 2026-04-08 11:32 | 47.15030 | 140.30789 | 30105 ft | 480 kts | 112° |
| 2026-04-08 11:32 | 47.13929 | 140.35382 | 29461 ft | 478 kts | 112° |
| 2026-04-08 11:33 | 47.12817 | 140.40006 | 28444 ft | 485 kts | 112° |
| 2026-04-08 11:33 | 47.11694 | 140.44659 | 27455 ft | 491 kts | 112° |
| 2026-04-08 11:33 | 47.10538 | 140.49440 | 26725 ft | 500 kts | 111° |
| 2026-04-08 11:33 | 47.09378 | 140.54240 | 26225 ft | 501 kts | 111° |
| 2026-04-08 11:34 | 47.08221 | 140.59032 | 25708 ft | 498 kts | 111° |
| 2026-04-08 11:34 | 47.07064 | 140.63806 | 25182 ft | 494 kts | 111° |
| 2026-04-08 11:34 | 47.06136 | 140.67633 | 24758 ft | 491 kts | 112° |